createdAt,value
2019-04-10T00:01:50.954Z,72.08
2019-04-10T00:04:18.980Z,71.38
2019-04-10T00:06:46.672Z,71.51
2019-04-10T00:09:14.777Z,70.92
2019-04-10T00:11:43.199Z,71.01
2019-04-10T00:14:12.273Z,71.00
2019-04-10T00:16:40.477Z,70.69
2019-04-10T00:19:08.749Z,70.87
2019-04-10T00:21:37.416Z,71.54
2019-04-10T00:24:06.038Z,72.23
2019-04-10T00:26:34.111Z,71.66
2019-04-10T00:29:01.903Z,72.18
2019-04-10T00:31:29.778Z,71.41
2019-04-10T00:33:57.494Z,71.33
2019-04-10T00:36:25.224Z,71.98
2019-04-10T00:38:53.893Z,72.51
2019-04-10T00:41:21.846Z,72.22
2019-04-10T00:43:49.563Z,71.31
2019-04-10T00:46:17.851Z,71.85
2019-04-10T00:48:45.741Z,71.43
2019-04-10T00:51:13.395Z,71.10
2019-04-10T00:53:41.263Z,72.05
2019-04-10T00:56:09.147Z,71.78
2019-04-10T00:58:37.547Z,72.16
2019-04-10T01:01:05.643Z,72.47
2019-04-10T01:03:48.497Z,73.50
2019-04-10T01:06:16.116Z,73.04
2019-04-10T01:08:44.722Z,72.94
2019-04-10T01:11:12.838Z,72.55
2019-04-10T01:13:41.123Z,72.64
2019-04-10T01:16:09.230Z,71.56
2019-04-10T01:18:37.408Z,72.33
2019-04-10T01:21:06.178Z,71.33
2019-04-10T01:23:35.043Z,71.15
2019-04-10T01:26:03.094Z,71.38
2019-04-10T01:28:31.108Z,71.67
2019-04-10T01:30:59.091Z,71.24
2019-04-10T01:33:26.945Z,71.20
2019-04-10T01:35:54.600Z,72.41
2019-04-10T01:38:22.309Z,72.71
2019-04-10T01:40:51.081Z,73.49
2019-04-10T01:43:19.983Z,74.63
2019-04-10T01:45:47.803Z,74.76
2019-04-10T01:48:15.792Z,74.73
2019-04-10T01:50:44.457Z,73.82
2019-04-10T01:53:13.325Z,74.22
2019-04-10T01:55:41.180Z,74.93
2019-04-10T01:58:13.286Z,74.30
2019-04-10T02:00:43.861Z,73.86
2019-04-10T02:03:11.880Z,74.62
2019-04-10T02:05:40.779Z,73.87
2019-04-10T02:08:12.758Z,74.31
2019-04-10T02:10:38.391Z,74.18
2019-04-10T02:13:07.331Z,74.22
2019-04-10T02:15:35.073Z,74.73
2019-04-10T02:18:03.280Z,74.66
2019-04-10T02:20:31.336Z,74.34
2019-04-10T02:22:59.143Z,74.80
2019-04-10T02:25:26.789Z,75.09
2019-04-10T02:27:54.523Z,75.53
2019-04-10T02:30:23.887Z,75.30
2019-04-10T02:32:52.851Z,75.28
2019-04-10T02:35:23.695Z,75.60
2019-04-10T02:37:54.684Z,75.52
2019-04-10T02:40:21.276Z,75.05
2019-04-10T02:42:49.407Z,75.01
2019-04-10T02:45:18.930Z,74.47
2019-04-10T02:47:47.448Z,73.63
2019-04-10T02:50:16.599Z,73.32
2019-04-10T02:52:45.920Z,72.74
2019-04-10T02:55:14.427Z,72.78
2019-04-10T02:57:43.601Z,72.84
2019-04-10T03:00:13.943Z,72.80
2019-04-10T03:02:41.580Z,72.22
2019-04-10T03:05:09.876Z,72.42
2019-04-10T03:07:37.621Z,72.33
2019-04-10T03:10:16.372Z,73.08
2019-04-10T03:12:36.229Z,73.33
2019-04-10T03:15:05.711Z,73.23
2019-04-10T03:17:34.749Z,73.41
2019-04-10T03:20:02.558Z,73.03
2019-04-10T03:22:30.216Z,72.66
2019-04-10T03:24:58.375Z,72.65
2019-04-10T03:27:26.120Z,73.20
2019-04-10T03:29:53.950Z,73.53
2019-04-10T03:32:31.095Z,73.43
2019-04-10T03:35:00.569Z,72.71
2019-04-10T03:37:28.611Z,74.01
2019-04-10T03:39:57.359Z,73.61
2019-04-10T03:42:25.459Z,74.43
2019-04-10T03:44:53.214Z,74.06
2019-04-10T03:47:20.933Z,74.40
2019-04-10T03:49:49.655Z,74.84
2019-04-10T03:52:17.532Z,74.37
2019-04-10T03:54:46.071Z,74.55
2019-04-10T03:57:14.278Z,74.66
2019-04-10T03:59:42.121Z,75.16
2019-04-10T04:02:09.848Z,76.23
2019-04-10T04:04:37.701Z,76.68
2019-04-10T04:07:05.421Z,76.45
2019-04-10T04:09:33.059Z,76.42
2019-04-10T04:12:00.796Z,76.40
2019-04-10T04:14:28.516Z,76.94
2019-04-10T04:16:56.257Z,76.52
2019-04-10T04:19:24.126Z,76.13
2019-04-10T04:21:52.322Z,76.36
2019-04-10T04:24:22.496Z,76.26
2019-04-10T04:26:50.809Z,76.59
2019-04-10T04:29:18.668Z,76.62
2019-04-10T04:31:46.503Z,76.60
2019-04-10T04:34:14.278Z,76.40
2019-04-10T04:36:42.956Z,77.10
2019-04-10T04:39:21.017Z,77.24
2019-04-10T04:41:40.261Z,77.93
2019-04-10T04:44:08.105Z,77.35
2019-04-10T04:46:36.503Z,76.73
2019-04-10T04:49:04.251Z,76.42
2019-04-10T04:51:33.011Z,76.71
2019-04-10T04:54:01.061Z,76.47
2019-04-10T04:56:28.777Z,75.84
2019-04-10T04:58:56.422Z,75.76
2019-04-10T05:01:24.068Z,75.98
2019-04-10T05:03:52.622Z,76.27
2019-04-10T05:06:20.481Z,76.09
2019-04-10T05:08:48.573Z,75.87
2019-04-10T05:11:16.376Z,75.35
2019-04-10T05:13:44.285Z,75.09
2019-04-10T05:16:11.946Z,74.39
2019-04-10T05:18:39.587Z,74.28
2019-04-10T05:21:07.231Z,73.08
2019-04-10T05:23:35.128Z,74.44
2019-04-10T05:26:02.820Z,73.66
2019-04-10T05:28:31.076Z,72.50
2019-04-10T05:30:58.981Z,73.70
2019-04-10T05:33:26.856Z,73.49
2019-04-10T05:35:54.973Z,72.62
2019-04-10T05:38:22.866Z,73.52
2019-04-10T05:40:50.761Z,73.60
2019-04-10T05:43:18.514Z,73.44
2019-04-10T05:45:46.474Z,73.22
2019-04-10T05:48:15.270Z,72.72
2019-04-10T05:50:53.066Z,71.97
2019-04-10T05:53:12.404Z,70.58
2019-04-10T05:55:40.699Z,70.00
2019-04-10T05:58:09.213Z,69.76
2019-04-10T06:00:37.044Z,70.53
2019-04-10T06:03:04.709Z,70.54
2019-04-10T06:05:32.346Z,69.59
2019-04-10T06:08:00.005Z,68.85
2019-04-10T06:10:27.674Z,67.31
2019-04-10T06:12:55.384Z,67.31
2019-04-10T06:15:23.268Z,66.61
2019-04-10T06:17:51.129Z,65.34
2019-04-10T06:20:18.804Z,65.10
2019-04-10T06:22:47.350Z,65.23
2019-04-10T06:25:16.097Z,65.09
2019-04-10T06:27:44.985Z,64.67
2019-04-10T06:30:12.858Z,64.74
2019-04-10T06:32:40.517Z,64.71
2019-04-10T06:35:08.355Z,64.48
2019-04-10T06:37:36.166Z,63.64
2019-04-10T06:40:13.172Z,61.28
2019-04-10T06:42:44.829Z,60.51
2019-04-10T06:45:02.839Z,59.98
2019-04-10T06:47:30.988Z,58.20
2019-04-10T06:49:59.257Z,58.25
2019-04-10T06:52:27.044Z,57.06
2019-04-10T06:54:55.421Z,57.03
2019-04-10T06:57:23.200Z,56.34
2019-04-10T06:59:52.340Z,54.72
2019-04-10T07:02:27.316Z,57.23
2019-04-10T07:04:54.181Z,57.01
2019-04-10T07:07:21.827Z,55.83
2019-04-10T07:09:49.585Z,56.87
2019-04-10T07:12:18.459Z,54.25
2019-04-10T07:14:49.334Z,56.42
2019-04-10T07:17:16.018Z,52.18
2019-04-10T07:19:45.554Z,51.77
2019-04-10T07:22:14.707Z,51.87
2019-04-10T07:24:43.981Z,51.30
2019-04-10T07:27:11.992Z,50.64
2019-04-10T07:29:40.419Z,50.78
2019-04-10T07:32:10.630Z,49.25
2019-04-10T07:34:37.510Z,49.59
2019-04-10T07:37:05.757Z,49.27
2019-04-10T07:39:34.144Z,49.24
2019-04-10T07:42:02.804Z,50.16
2019-04-10T07:44:30.742Z,50.16
2019-04-10T07:47:00.689Z,48.77
2019-04-10T07:49:30.997Z,48.92
2019-04-10T07:51:58.620Z,49.07
2019-04-10T07:54:26.773Z,48.07
2019-04-10T07:56:55.684Z,48.00
2019-04-10T07:59:23.609Z,48.88
2019-04-10T08:01:51.737Z,46.89
2019-04-10T08:04:20.535Z,47.79
2019-04-10T08:06:48.323Z,48.21
2019-04-10T08:09:16.727Z,48.29
2019-04-10T08:11:44.795Z,47.59
2019-04-10T08:14:12.776Z,47.17
2019-04-10T08:16:41.419Z,47.85
2019-04-10T08:19:10.330Z,47.33
2019-04-10T08:21:38.182Z,47.44
2019-04-10T08:24:05.903Z,47.49
2019-04-10T08:26:33.573Z,47.22
2019-04-10T08:29:01.620Z,47.63
2019-04-10T08:31:29.447Z,46.44
2019-04-10T08:33:57.124Z,46.40
2019-04-10T08:36:25.589Z,45.99
2019-04-10T08:38:53.404Z,45.69
2019-04-10T08:41:21.309Z,46.76
2019-04-10T08:43:50.179Z,45.28
2019-04-10T08:46:18.039Z,45.10
2019-04-10T08:48:45.912Z,45.74
2019-04-10T08:51:13.565Z,45.38
2019-04-10T08:53:41.205Z,45.43
2019-04-10T08:56:08.867Z,44.95
2019-04-10T08:58:36.534Z,44.70
2019-04-10T09:01:05.001Z,43.31
2019-04-10T09:03:33.031Z,44.57
2019-04-10T09:06:00.989Z,44.87
2019-04-10T09:08:28.890Z,46.28
2019-04-10T09:10:56.700Z,43.59
2019-04-10T09:13:24.408Z,43.93
2019-04-10T09:15:52.121Z,44.04
2019-04-10T09:18:20.977Z,44.16
2019-04-10T09:20:49.092Z,43.28
2019-04-10T09:23:25.103Z,43.89
2019-04-10T09:25:46.997Z,43.88
2019-04-10T09:28:16.006Z,43.63
2019-04-10T09:30:44.871Z,44.29
2019-04-10T09:33:19.741Z,43.80
2019-04-10T09:35:41.992Z,43.37
2019-04-10T09:38:10.590Z,44.11
2019-04-10T09:40:38.569Z,44.01
2019-04-10T09:43:07.340Z,43.29
2019-04-10T09:45:35.144Z,42.78
2019-04-10T09:48:02.793Z,43.23
2019-04-10T09:50:31.120Z,42.88
2019-04-10T09:52:59.991Z,43.28
2019-04-10T09:55:27.859Z,41.50
2019-04-10T09:57:55.546Z,42.15
2019-04-10T10:00:24.428Z,43.20
2019-04-10T10:02:52.968Z,43.52
2019-04-10T10:05:20.762Z,42.03
2019-04-10T10:07:48.671Z,43.35
2019-04-10T10:10:17.199Z,42.47
2019-04-10T10:12:45.048Z,43.47
2019-04-10T10:15:13.419Z,42.72
2019-04-10T10:17:41.294Z,42.47
2019-04-10T10:20:09.068Z,42.22
2019-04-10T10:22:37.042Z,42.25
2019-04-10T10:25:04.913Z,42.45
2019-04-10T10:27:32.886Z,42.18
2019-04-10T10:30:00.591Z,41.68
2019-04-10T10:32:28.922Z,41.76
2019-04-10T10:34:56.812Z,42.63
2019-04-10T10:37:24.468Z,42.00
2019-04-10T10:39:52.827Z,41.63
2019-04-10T10:42:21.319Z,41.58
2019-04-10T10:44:50.040Z,41.94
2019-04-10T10:47:17.946Z,41.15
2019-04-10T10:49:45.731Z,40.25
2019-04-10T10:52:13.384Z,40.99
2019-04-10T10:54:41.121Z,40.58
2019-04-10T10:57:09.041Z,40.41
2019-04-10T10:59:37.646Z,40.69
2019-04-10T11:02:06.425Z,39.87
2019-04-10T11:04:34.347Z,40.73
2019-04-10T11:07:02.672Z,40.21
2019-04-10T11:09:30.435Z,39.76
2019-04-10T11:11:58.084Z,40.65
2019-04-10T11:14:25.731Z,40.61
2019-04-10T11:16:53.682Z,40.25
2019-04-10T11:19:21.540Z,40.43
2019-04-10T11:21:49.645Z,41.28
2019-04-10T11:24:17.419Z,41.52
2019-04-10T11:26:46.252Z,40.73
2019-04-10T11:29:14.421Z,40.78
2019-04-10T11:31:42.250Z,40.54
2019-04-10T11:34:11.182Z,41.16
2019-04-10T11:36:40.057Z,41.26
2019-04-10T11:41:38.310Z,40.10
2019-04-10T11:44:08.145Z,40.35
2019-04-10T11:46:38.714Z,40.67
2019-04-10T11:49:07.304Z,39.75
2019-04-10T11:51:36.731Z,40.83
2019-04-10T11:54:07.709Z,40.95
2019-04-10T11:56:34.298Z,40.38
2019-04-10T11:59:05.792Z,41.09
2019-04-10T12:01:34.235Z,40.87
2019-04-10T12:04:02.837Z,40.79
2019-04-10T12:06:33.240Z,41.07
2019-04-10T12:09:19.321Z,40.81
2019-04-10T12:11:30.921Z,40.90
2019-04-10T12:13:58.938Z,40.62
2019-04-10T12:16:27.268Z,39.56
2019-04-10T12:18:55.949Z,40.90
2019-04-10T12:21:24.172Z,40.20
2019-04-10T12:23:53.411Z,40.24
2019-04-10T12:26:21.201Z,39.75
2019-04-10T12:28:49.904Z,39.82
2019-04-10T12:31:17.780Z,40.02
2019-04-10T12:33:46.499Z,40.14
2019-04-10T12:36:14.296Z,40.12
2019-04-10T12:38:41.960Z,39.97
2019-04-10T12:41:09.611Z,40.68
2019-04-10T12:43:37.276Z,40.04
2019-04-10T12:46:04.940Z,40.85
2019-04-10T12:48:32.610Z,40.23
2019-04-10T12:51:01.175Z,40.37
2019-04-10T12:53:29.599Z,40.22
2019-04-10T12:55:57.797Z,40.54
2019-04-10T12:58:26.637Z,40.00
2019-04-10T13:00:54.452Z,39.92
2019-04-10T13:03:23.085Z,39.92
2019-04-10T13:05:51.550Z,39.96
2019-04-10T13:08:22.859Z,39.85
2019-04-10T13:10:48.766Z,39.49
2019-04-10T13:13:16.430Z,39.17
2019-04-10T13:15:44.079Z,38.95
2019-04-10T13:18:12.106Z,39.60
2019-04-10T13:20:39.979Z,38.71
2019-04-10T13:23:08.668Z,39.24
2019-04-10T13:25:36.624Z,38.88
2019-04-10T13:28:05.499Z,38.86
2019-04-10T13:30:44.141Z,39.88
2019-04-10T13:33:02.671Z,39.23
2019-04-10T13:35:30.343Z,39.10
2019-04-10T13:37:58.931Z,38.65
2019-04-10T13:40:27.828Z,38.32
2019-04-10T13:42:55.807Z,38.91
2019-04-10T13:45:23.621Z,37.88
2019-04-10T13:47:51.394Z,38.78
2019-04-10T13:50:19.037Z,38.80
2019-04-10T13:52:51.059Z,39.10
2019-04-10T13:55:19.006Z,38.70
2019-04-10T13:57:46.847Z,39.04
2019-04-10T14:00:26.028Z,38.91
2019-04-10T14:02:54.100Z,39.22
2019-04-10T14:05:22.033Z,39.30
2019-04-10T14:07:49.755Z,38.30
2019-04-10T14:10:18.696Z,39.12
2019-04-10T14:12:47.190Z,39.35
2019-04-10T14:15:16.016Z,39.27
2019-04-10T14:17:43.940Z,39.33
2019-04-10T14:20:11.664Z,38.29
2019-04-10T14:22:46.133Z,39.10
2019-04-10T14:25:25.450Z,38.91
2019-04-10T14:27:54.329Z,38.63
2019-04-10T14:30:31.911Z,39.65
2019-04-10T14:33:00.829Z,39.28
2019-04-10T14:35:29.489Z,38.69
2019-04-10T14:37:57.347Z,37.99
2019-04-10T14:40:26.166Z,38.24
2019-04-10T14:42:53.952Z,37.77
2019-04-10T14:45:21.606Z,38.48
2019-04-10T14:47:49.810Z,38.65
2019-04-10T14:50:17.844Z,38.60
2019-04-10T14:52:45.543Z,38.39
2019-04-10T14:55:14.459Z,38.63
2019-04-10T14:57:43.234Z,38.95
2019-04-10T15:00:18.263Z,39.31
2019-04-10T15:02:46.530Z,39.12
2019-04-10T15:05:15.313Z,39.52
2019-04-10T15:07:43.197Z,39.71
2019-04-10T15:10:10.947Z,39.25
2019-04-10T15:12:39.526Z,39.23
2019-04-10T15:15:07.988Z,39.25
2019-04-10T15:17:35.691Z,38.33
2019-04-10T15:20:03.429Z,37.57
2019-04-10T15:22:31.750Z,37.70
2019-04-10T15:24:59.520Z,38.10
2019-04-10T15:27:27.198Z,38.06
2019-04-10T15:29:54.903Z,38.50
2019-04-10T15:32:22.607Z,38.64
2019-04-10T15:34:51.246Z,38.15
2019-04-10T15:37:19.236Z,38.41
2019-04-10T15:39:46.901Z,37.59
2019-04-10T15:42:14.560Z,37.98
2019-04-10T15:44:42.796Z,38.31
2019-04-10T15:47:18.395Z,38.79
2019-04-10T15:49:40.862Z,39.28
2019-04-10T15:52:10.018Z,38.67
2019-04-10T15:54:38.181Z,38.98
2019-04-10T15:57:06.842Z,38.88
2019-04-10T15:59:34.703Z,38.63
2019-04-10T16:02:03.531Z,39.09
2019-04-10T16:04:31.683Z,38.95
2019-04-10T16:07:00.087Z,39.26
2019-04-10T16:09:29.167Z,38.76
2019-04-10T16:12:08.145Z,38.57
2019-04-10T16:14:35.978Z,37.66
2019-04-10T16:17:17.149Z,37.51
2019-04-10T16:19:49.490Z,37.00
2019-04-10T16:22:27.640Z,38.71
2019-04-10T16:24:57.567Z,39.18
2019-04-10T16:27:25.355Z,39.69
2019-04-10T16:29:53.167Z,39.72
2019-04-10T16:32:21.335Z,40.11
2019-04-10T16:34:49.150Z,40.09
2019-04-10T16:37:16.924Z,39.91
2019-04-10T16:39:57.449Z,40.26
2019-04-10T16:42:14.696Z,37.47
2019-04-10T16:44:43.745Z,37.36
2019-04-10T16:47:12.103Z,37.71
2019-04-10T16:49:39.884Z,38.04
2019-04-10T16:52:07.540Z,38.51
2019-04-10T16:54:35.461Z,39.22
2019-04-10T16:57:03.242Z,39.96
2019-04-10T16:59:31.985Z,40.31
2019-04-10T17:02:00.806Z,40.67
2019-04-10T17:04:29.828Z,40.77
2019-04-10T17:06:58.750Z,40.47
2019-04-10T17:09:27.326Z,40.94
2019-04-10T17:11:56.358Z,40.84
2019-04-10T17:14:24.307Z,40.75
2019-04-10T17:16:51.957Z,41.64
2019-04-10T17:19:19.607Z,41.48
2019-04-10T17:21:47.260Z,41.50
2019-04-10T17:24:15.350Z,41.33
2019-04-10T17:26:43.434Z,41.27
2019-04-10T17:29:12.481Z,41.23
2019-04-10T17:31:40.480Z,41.38
2019-04-10T17:34:08.343Z,41.45
2019-04-10T17:36:36.868Z,41.76
2019-04-10T17:39:05.542Z,41.97
2019-04-10T17:41:33.424Z,42.10
2019-04-10T17:44:02.571Z,42.47
2019-04-10T17:46:31.250Z,41.93
2019-04-10T17:48:59.053Z,42.20
2019-04-10T17:51:28.169Z,42.17
2019-04-10T17:53:56.126Z,42.77
2019-04-10T17:56:24.255Z,42.91
2019-04-10T17:58:52.092Z,42.92
2019-04-10T18:01:21.135Z,43.51
2019-04-10T18:03:52.184Z,43.75
2019-04-10T18:06:19.307Z,43.92
2019-04-10T18:08:47.275Z,43.63
2019-04-10T18:11:16.132Z,43.74
2019-04-10T18:13:44.935Z,44.00
2019-04-10T18:16:12.747Z,44.04
2019-04-10T18:18:40.414Z,44.53
2019-04-10T18:21:08.607Z,44.41
2019-04-10T18:23:37.475Z,44.84
2019-04-10T18:26:06.620Z,45.03
2019-04-10T18:28:35.427Z,44.84
2019-04-10T18:31:04.940Z,45.16
2019-04-10T18:33:32.777Z,45.76
2019-04-10T18:36:00.425Z,45.78
2019-04-10T18:38:28.111Z,45.83
2019-04-10T18:41:02.038Z,46.76
2019-04-10T18:43:25.930Z,46.34
2019-04-10T18:46:05.027Z,46.01
2019-04-10T18:48:24.956Z,46.63
2019-04-10T18:50:53.770Z,46.63
2019-04-10T18:53:21.611Z,47.19
2019-04-10T18:55:49.293Z,47.01
2019-04-10T18:58:19.940Z,47.08
2019-04-10T19:01:08.273Z,47.07
2019-04-10T19:03:51.390Z,47.51
2019-04-10T19:06:21.054Z,47.75
2019-04-10T19:09:01.748Z,48.15
2019-04-10T19:11:23.129Z,48.12
2019-04-10T19:13:47.479Z,48.63
2019-04-10T19:16:17.365Z,48.69
2019-04-10T19:18:46.130Z,48.64
2019-04-10T19:21:13.944Z,48.99
2019-04-10T19:23:41.780Z,49.38
2019-04-10T19:26:11.349Z,49.05
2019-04-10T19:28:41.842Z,49.17
2019-04-10T19:31:18.145Z,49.47
2019-04-10T19:33:43.556Z,49.63
2019-04-10T19:36:11.986Z,49.93
2019-04-10T19:38:39.768Z,50.11
2019-04-10T19:41:20.005Z,49.77
2019-04-10T19:43:37.903Z,50.00
2019-04-10T19:46:06.467Z,50.19
2019-04-10T19:48:35.154Z,50.96
2019-04-10T19:51:02.968Z,52.17
2019-04-10T19:53:30.627Z,52.27
2019-04-10T19:55:58.495Z,52.56
2019-04-10T19:58:26.156Z,52.54
2019-04-10T20:00:54.886Z,52.83
2019-04-10T20:03:23.752Z,52.42
2019-04-10T20:05:51.532Z,51.37
2019-04-10T20:08:19.659Z,52.28
2019-04-10T20:10:47.717Z,52.24
2019-04-10T20:13:16.580Z,51.78
2019-04-10T20:15:44.804Z,52.21
2019-04-10T20:18:12.716Z,52.31
2019-04-10T20:20:41.544Z,52.51
2019-04-10T20:23:09.758Z,52.43
2019-04-10T20:25:38.717Z,52.35
2019-04-10T20:28:06.941Z,52.21
2019-04-10T20:30:34.953Z,52.99
2019-04-10T20:33:02.929Z,53.08
2019-04-10T20:35:31.791Z,52.90
2019-04-10T20:38:00.923Z,52.38
2019-04-10T20:40:29.694Z,52.17
2019-04-10T20:42:58.371Z,51.76
2019-04-10T20:45:26.555Z,51.82
2019-04-10T20:47:54.203Z,52.31
2019-04-10T20:50:21.845Z,51.98
2019-04-10T20:52:49.543Z,51.40
2019-04-10T20:55:17.508Z,50.63
2019-04-10T20:57:45.826Z,50.79
2019-04-10T21:00:20.368Z,50.50
2019-04-10T21:02:48.862Z,50.65
2019-04-10T21:05:17.917Z,50.29
2019-04-10T21:07:45.977Z,50.27
2019-04-10T21:10:14.942Z,50.67
2019-04-10T21:12:43.015Z,50.28
2019-04-10T21:15:11.684Z,50.22
2019-04-10T21:17:39.680Z,50.23
2019-04-10T21:20:07.933Z,50.25
2019-04-10T21:22:36.367Z,50.64
2019-04-10T21:25:04.436Z,50.13
2019-04-10T21:27:32.097Z,50.07
2019-04-10T21:30:05.800Z,50.55
2019-04-10T21:32:40.846Z,50.30
2019-04-10T21:35:11.690Z,50.40
2019-04-10T21:37:40.295Z,50.52
2019-04-10T21:40:08.233Z,50.32
2019-04-10T21:42:36.988Z,50.38
2019-04-10T21:45:05.261Z,50.58
2019-04-10T21:47:33.439Z,50.54
2019-04-10T21:50:02.510Z,50.58
2019-04-10T21:52:30.751Z,51.04
2019-04-10T21:55:00.360Z,51.11
2019-04-10T21:57:27.951Z,51.10
2019-04-10T21:59:56.044Z,50.98
2019-04-10T22:02:23.912Z,50.99
2019-04-10T22:04:51.897Z,51.12
2019-04-10T22:07:40.509Z,51.47
2019-04-10T22:10:20.099Z,51.21
2019-04-10T22:12:51.802Z,51.32
2019-04-10T22:15:28.887Z,51.49
2019-04-10T22:17:56.845Z,51.52
2019-04-10T22:20:25.453Z,51.60
2019-04-10T22:22:53.497Z,52.25
2019-04-10T22:25:21.589Z,52.03
2019-04-10T22:27:49.964Z,51.62
2019-04-10T22:30:18.949Z,51.80
2019-04-10T22:32:47.159Z,52.00
2019-04-10T22:35:15.261Z,53.28
2019-04-10T22:37:44.068Z,52.20
2019-04-10T22:40:12.943Z,51.80
2019-04-10T22:42:46.100Z,52.18
2019-04-10T22:45:10.351Z,53.18
2019-04-10T22:47:39.234Z,53.05
2019-04-10T22:50:06.933Z,53.65
2019-04-10T22:52:34.601Z,53.89
2019-04-10T22:55:03.577Z,54.80
2019-04-10T22:57:31.440Z,55.50
2019-04-10T22:59:59.520Z,55.37
2019-04-10T23:02:27.828Z,55.83
2019-04-10T23:04:55.691Z,54.69
2019-04-10T23:07:24.079Z,53.88
2019-04-10T23:09:52.761Z,53.83
2019-04-10T23:12:20.527Z,54.75
2019-04-10T23:14:49.031Z,54.53
2019-04-10T23:17:16.897Z,54.56
2019-04-10T23:19:44.635Z,56.06
2019-04-10T23:22:13.346Z,56.55
2019-04-10T23:24:41.384Z,56.89
2019-04-10T23:27:09.399Z,57.59
2019-04-10T23:29:38.189Z,56.17
2019-04-10T23:32:05.962Z,57.05
2019-04-10T23:34:33.669Z,57.73
2019-04-10T23:37:02.443Z,56.60
2019-04-10T23:39:30.407Z,56.83
2019-04-10T23:41:59.043Z,57.02
2019-04-10T23:44:27.045Z,57.14
2019-04-10T23:46:55.719Z,56.96
2019-04-10T23:49:23.528Z,57.71
2019-04-10T23:51:51.620Z,55.45
2019-04-10T23:54:19.445Z,54.36
2019-04-10T23:56:49.356Z,54.38
2019-04-10T23:59:16.439Z,55.83
